sensor_id;sensor_type;location;lat;lon;timestamp;pressure;altitude;pressure_sealevel;temperature;humidity
78741;BME280;68062;48.726;9.370;2023-06-14T00:00:41;98214.34;;;12.72;66.60
78741;BME280;68062;48.726;9.370;2023-06-14T00:03:08;98222.63;;;12.44;68.13
78741;BME280;68062;48.726;9.370;2023-06-14T00:05:37;98215.25;;;12.71;66.51
78741;BME280;68062;48.726;9.370;2023-06-14T00:08:08;98223.53;;;12.41;66.57
78741;BME280;68062;48.726;9.370;2023-06-14T00:10:35;98217.25;;;12.06;68.08
78741;BME280;68062;48.726;9.370;2023-06-14T00:13:02;98221.38;;;12.15;68.19
78741;BME280;68062;48.726;9.370;2023-06-14T00:15:31;98212.34;;;12.41;67.57
78741;BME280;68062;48.726;9.370;2023-06-14T00:17:58;98201.91;;;12.48;68.20
78741;BME280;68062;48.726;9.370;2023-06-14T00:20:26;98212.88;;;12.60;67.46
78741;BME280;68062;48.726;9.370;2023-06-14T00:22:53;98217.50;;;12.41;68.16
78741;BME280;68062;48.726;9.370;2023-06-14T00:25:20;98213.53;;;12.23;69.23
78741;BME280;68062;48.726;9.370;2023-06-14T00:27:46;98178.59;;;12.06;68.63
78741;BME280;68062;48.726;9.370;2023-06-14T00:30:14;98222.31;;;12.11;69.11
78741;BME280;68062;48.726;9.370;2023-06-14T00:32:43;98222.56;;;11.93;70.04
78741;BME280;68062;48.726;9.370;2023-06-14T00:35:09;98220.44;;;12.20;68.89
78741;BME280;68062;48.726;9.370;2023-06-14T00:37:36;98217.78;;;12.25;68.73
78741;BME280;68062;48.726;9.370;2023-06-14T00:40:04;98195.25;;;11.83;69.60
78741;BME280;68062;48.726;9.370;2023-06-14T00:42:31;98219.63;;;12.17;68.71
78741;BME280;68062;48.726;9.370;2023-06-14T00:44:57;98226.22;;;12.35;67.89
78741;BME280;68062;48.726;9.370;2023-06-14T00:47:24;98223.06;;;12.17;68.48
78741;BME280;68062;48.726;9.370;2023-06-14T00:49:53;98227.78;;;11.92;69.18
78741;BME280;68062;48.726;9.370;2023-06-14T00:52:22;98224.38;;;11.90;69.87
78741;BME280;68062;48.726;9.370;2023-06-14T00:54:50;98224.41;;;11.87;69.82
78741;BME280;68062;48.726;9.370;2023-06-14T00:57:17;98228.50;;;12.00;69.17
78741;BME280;68062;48.726;9.370;2023-06-14T00:59:45;98225.88;;;12.03;68.79
78741;BME280;68062;48.726;9.370;2023-06-14T01:02:12;98227.19;;;11.73;69.57
78741;BME280;68062;48.726;9.370;2023-06-14T01:04:40;98222.50;;;11.40;71.42
78741;BME280;68062;48.726;9.370;2023-06-14T01:07:18;98224.06;;;11.52;70.97
78741;BME280;68062;48.726;9.370;2023-06-14T01:09:58;98222.00;;;11.12;72.50
78741;BME280;68062;48.726;9.370;2023-06-14T01:12:34;98220.34;;;11.08;73.11
78741;BME280;68062;48.726;9.370;2023-06-14T01:15:04;98223.03;;;11.00;75.31
78741;BME280;68062;48.726;9.370;2023-06-14T01:17:31;98221.13;;;11.14;74.59
78741;BME280;68062;48.726;9.370;2023-06-14T01:20:01;98216.97;;;11.04;76.16
78741;BME280;68062;48.726;9.370;2023-06-14T01:22:36;98226.28;;;11.13;79.85
78741;BME280;68062;48.726;9.370;2023-06-14T01:25:06;98218.72;;;11.02;78.64
78741;BME280;68062;48.726;9.370;2023-06-14T01:27:33;98226.59;;;10.89;79.42
78741;BME280;68062;48.726;9.370;2023-06-14T01:29:59;98232.50;;;10.98;78.27
78741;BME280;68062;48.726;9.370;2023-06-14T01:32:29;98229.84;;;11.02;77.50
78741;BME280;68062;48.726;9.370;2023-06-14T01:34:56;98231.69;;;10.93;78.07
78741;BME280;68062;48.726;9.370;2023-06-14T01:37:23;98226.69;;;10.79;79.72
78741;BME280;68062;48.726;9.370;2023-06-14T01:39:50;98227.56;;;10.79;80.21
78741;BME280;68062;48.726;9.370;2023-06-14T01:42:19;98227.38;;;10.93;78.45
78741;BME280;68062;48.726;9.370;2023-06-14T01:44:47;98231.84;;;10.80;78.50
78741;BME280;68062;48.726;9.370;2023-06-14T01:47:14;98231.41;;;11.17;78.77
78741;BME280;68062;48.726;9.370;2023-06-14T01:49:41;98226.13;;;11.27;77.38
78741;BME280;68062;48.726;9.370;2023-06-14T01:52:08;98232.31;;;11.12;77.34
78741;BME280;68062;48.726;9.370;2023-06-14T01:54:35;98223.91;;;10.97;78.18
78741;BME280;68062;48.726;9.370;2023-06-14T01:57:07;98230.97;;;10.81;78.39
78741;BME280;68062;48.726;9.370;2023-06-14T01:59:36;98189.22;;;10.59;78.98
78741;BME280;68062;48.726;9.370;2023-06-14T02:02:03;98231.50;;;11.07;76.43
78741;BME280;68062;48.726;9.370;2023-06-14T02:04:31;98229.00;;;11.02;76.66
78741;BME280;68062;48.726;9.370;2023-06-14T02:06:58;98230.78;;;10.97;77.42
78741;BME280;68062;48.726;9.370;2023-06-14T02:09:25;98235.09;;;10.93;76.66
78741;BME280;68062;48.726;9.370;2023-06-14T02:11:54;98225.75;;;10.86;76.83
78741;BME280;68062;48.726;9.370;2023-06-14T02:14:20;98237.78;;;10.84;77.45
78741;BME280;68062;48.726;9.370;2023-06-14T02:16:49;98232.91;;;10.60;78.18
78741;BME280;68062;48.726;9.370;2023-06-14T02:19:16;98234.00;;;10.31;78.12
78741;BME280;68062;48.726;9.370;2023-06-14T02:21:43;98224.00;;;10.00;78.32
78741;BME280;68062;48.726;9.370;2023-06-14T02:24:12;98234.47;;;9.77;79.72
78741;BME280;68062;48.726;9.370;2023-06-14T02:26:39;98189.38;;;9.34;80.78
78741;BME280;68062;48.726;9.370;2023-06-14T02:29:06;98216.53;;;9.68;81.93
78741;BME280;68062;48.726;9.370;2023-06-14T02:31:36;98228.38;;;9.88;81.08
78741;BME280;68062;48.726;9.370;2023-06-14T02:34:04;98224.03;;;9.99;81.69
78741;BME280;68062;48.726;9.370;2023-06-14T02:36:30;98234.28;;;9.97;83.64
78741;BME280;68062;48.726;9.370;2023-06-14T02:38:59;98236.91;;;9.91;84.01
78741;BME280;68062;48.726;9.370;2023-06-14T02:41:26;98227.53;;;9.89;87.41
78741;BME280;68062;48.726;9.370;2023-06-14T02:43:53;98234.44;;;9.79;85.13
78741;BME280;68062;48.726;9.370;2023-06-14T02:46:21;98244.38;;;10.24;82.91
78741;BME280;68062;48.726;9.370;2023-06-14T02:48:49;98234.81;;;10.38;80.68
78741;BME280;68062;48.726;9.370;2023-06-14T02:51:17;98230.44;;;10.48;78.91
78741;BME280;68062;48.726;9.370;2023-06-14T02:53:44;98228.78;;;10.45;79.10
78741;BME280;68062;48.726;9.370;2023-06-14T02:56:10;98207.63;;;10.12;78.74
78741;BME280;68062;48.726;9.370;2023-06-14T02:58:37;98234.25;;;10.05;80.16
78741;BME280;68062;48.726;9.370;2023-06-14T03:01:05;98226.69;;;9.82;80.94
78741;BME280;68062;48.726;9.370;2023-06-14T03:03:34;98235.44;;;9.56;81.84
78741;BME280;68062;48.726;9.370;2023-06-14T03:06:02;98232.59;;;9.98;79.76
78741;BME280;68062;48.726;9.370;2023-06-14T03:08:33;98225.81;;;9.91;80.40
78741;BME280;68062;48.726;9.370;2023-06-14T03:11:07;98237.88;;;9.75;84.49
78741;BME280;68062;48.726;9.370;2023-06-14T03:13:35;98237.06;;;9.69;84.12
78741;BME280;68062;48.726;9.370;2023-06-14T03:16:04;98243.16;;;9.50;86.21
78741;BME280;68062;48.726;9.370;2023-06-14T03:18:34;98241.50;;;9.42;87.05
78741;BME280;68062;48.726;9.370;2023-06-14T03:21:02;98244.91;;;9.46;87.77
78741;BME280;68062;48.726;9.370;2023-06-14T03:23:30;98227.75;;;9.53;86.58
78741;BME280;68062;48.726;9.370;2023-06-14T03:25:59;98254.13;;;9.81;85.36
78741;BME280;68062;48.726;9.370;2023-06-14T03:28:26;98252.31;;;9.91;83.87
78741;BME280;68062;48.726;9.370;2023-06-14T03:30:54;98258.38;;;9.82;85.90
78741;BME280;68062;48.726;9.370;2023-06-14T03:33:22;98267.81;;;9.79;85.31
78741;BME280;68062;48.726;9.370;2023-06-14T03:35:50;98265.28;;;9.74;85.35
78741;BME280;68062;48.726;9.370;2023-06-14T03:38:17;98266.31;;;9.43;84.97
78741;BME280;68062;48.726;9.370;2023-06-14T03:40:44;98271.31;;;9.67;84.75
78741;BME280;68062;48.726;9.370;2023-06-14T03:43:13;98233.59;;;9.77;82.86
78741;BME280;68062;48.726;9.370;2023-06-14T03:45:41;98265.13;;;9.99;82.37
78741;BME280;68062;48.726;9.370;2023-06-14T03:48:08;98264.44;;;9.74;83.76
78741;BME280;68062;48.726;9.370;2023-06-14T03:50:36;98266.16;;;9.71;84.72
78741;BME280;68062;48.726;9.370;2023-06-14T03:53:06;98278.22;;;9.59;85.73
78741;BME280;68062;48.726;9.370;2023-06-14T03:55:33;98278.25;;;9.51;86.48
78741;BME280;68062;48.726;9.370;2023-06-14T03:58:01;98288.53;;;9.48;89.42
78741;BME280;68062;48.726;9.370;2023-06-14T04:00:29;98273.16;;;9.43;90.02
78741;BME280;68062;48.726;9.370;2023-06-14T04:02:57;98288.47;;;9.62;88.32
78741;BME280;68062;48.726;9.370;2023-06-14T04:05:24;98285.00;;;9.69;88.03
78741;BME280;68062;48.726;9.370;2023-06-14T04:07:54;98292.75;;;9.60;88.61
78741;BME280;68062;48.726;9.370;2023-06-14T04:10:21;98290.91;;;9.82;86.37
78741;BME280;68062;48.726;9.370;2023-06-14T04:12:48;98286.56;;;9.90;85.76
78741;BME280;68062;48.726;9.370;2023-06-14T04:15:16;98286.44;;;10.13;85.19
78741;BME280;68062;48.726;9.370;2023-06-14T04:17:45;98287.22;;;10.20;83.63
78741;BME280;68062;48.726;9.370;2023-06-14T04:20:12;98296.72;;;10.09;85.14
78741;BME280;68062;48.726;9.370;2023-06-14T04:22:38;98295.03;;;10.06;84.70
78741;BME280;68062;48.726;9.370;2023-06-14T04:25:07;98300.94;;;10.21;87.14
78741;BME280;68062;48.726;9.370;2023-06-14T04:27:34;98300.88;;;10.27;85.64
78741;BME280;68062;48.726;9.370;2023-06-14T04:30:04;98298.31;;;10.27;84.90
78741;BME280;68062;48.726;9.370;2023-06-14T04:32:45;98302.53;;;10.34;85.02
78741;BME280;68062;48.726;9.370;2023-06-14T04:35:12;98300.81;;;10.36;84.20
78741;BME280;68062;48.726;9.370;2023-06-14T04:37:42;98305.78;;;10.58;82.22
78741;BME280;68062;48.726;9.370;2023-06-14T04:40:11;98308.03;;;10.91;80.70
78741;BME280;68062;48.726;9.370;2023-06-14T04:42:39;98301.88;;;11.04;79.86
78741;BME280;68062;48.726;9.370;2023-06-14T04:45:09;98308.81;;;10.99;79.85
78741;BME280;68062;48.726;9.370;2023-06-14T04:47:37;98307.91;;;11.03;79.25
78741;BME280;68062;48.726;9.370;2023-06-14T04:50:07;98313.19;;;10.91;80.99
78741;BME280;68062;48.726;9.370;2023-06-14T04:52:35;98318.16;;;11.04;79.60
78741;BME280;68062;48.726;9.370;2023-06-14T04:55:04;98316.22;;;11.27;78.46
78741;BME280;68062;48.726;9.370;2023-06-14T04:57:32;98320.31;;;11.43;77.15
78741;BME280;68062;48.726;9.370;2023-06-14T04:59:59;98290.63;;;11.14;77.55
78741;BME280;68062;48.726;9.370;2023-06-14T05:02:27;98326.28;;;11.44;77.76
78741;BME280;68062;48.726;9.370;2023-06-14T05:04:56;98332.19;;;11.54;77.83
78741;BME280;68062;48.726;9.370;2023-06-14T05:07:24;98310.00;;;11.42;78.36
78741;BME280;68062;48.726;9.370;2023-06-14T05:09:51;98333.66;;;11.72;76.86
78741;BME280;68062;48.726;9.370;2023-06-14T05:12:18;98330.97;;;11.83;74.83
78741;BME280;68062;48.726;9.370;2023-06-14T05:14:46;98336.81;;;11.92;73.82
78741;BME280;68062;48.726;9.370;2023-06-14T05:17:14;98340.88;;;12.11;72.98
78741;BME280;68062;48.726;9.370;2023-06-14T05:19:42;98340.41;;;12.43;71.16
78741;BME280;68062;48.726;9.370;2023-06-14T05:22:09;98334.22;;;12.52;70.62
78741;BME280;68062;48.726;9.370;2023-06-14T05:24:37;98340.00;;;12.66;69.28
78741;BME280;68062;48.726;9.370;2023-06-14T05:27:04;98339.91;;;12.73;69.83
78741;BME280;68062;48.726;9.370;2023-06-14T05:29:31;98344.13;;;12.78;70.30
78741;BME280;68062;48.726;9.370;2023-06-14T05:31:58;98333.56;;;12.91;69.80
78741;BME280;68062;48.726;9.370;2023-06-14T05:34:25;98337.69;;;13.01;69.60
78741;BME280;68062;48.726;9.370;2023-06-14T05:36:52;98333.84;;;13.22;68.51
78741;BME280;68062;48.726;9.370;2023-06-14T05:39:19;98293.63;;;13.10;68.48
78741;BME280;68062;48.726;9.370;2023-06-14T05:41:47;98343.00;;;13.37;66.82
78741;BME280;68062;48.726;9.370;2023-06-14T05:44:13;98342.56;;;13.61;67.44
78741;BME280;68062;48.726;9.370;2023-06-14T05:46:41;98336.09;;;13.82;66.10
78741;BME280;68062;48.726;9.370;2023-06-14T05:49:07;98333.34;;;13.90;66.03
78741;BME280;68062;48.726;9.370;2023-06-14T05:51:34;98334.50;;;13.76;65.38
78741;BME280;68062;48.726;9.370;2023-06-14T05:54:01;98333.84;;;14.06;65.60
78741;BME280;68062;48.726;9.370;2023-06-14T05:56:28;98327.63;;;14.13;64.36
78741;BME280;68062;48.726;9.370;2023-06-14T05:58:57;98327.78;;;14.45;62.80
78741;BME280;68062;48.726;9.370;2023-06-14T06:01:23;98333.28;;;14.65;62.10
78741;BME280;68062;48.726;9.370;2023-06-14T06:03:51;98328.31;;;14.92;61.56
78741;BME280;68062;48.726;9.370;2023-06-14T06:06:17;98337.84;;;14.90;62.14
78741;BME280;68062;48.726;9.370;2023-06-14T06:08:44;98340.59;;;15.17;60.66
78741;BME280;68062;48.726;9.370;2023-06-14T06:11:11;98344.03;;;15.49;60.10
78741;BME280;68062;48.726;9.370;2023-06-14T06:13:38;98343.66;;;15.62;58.04
78741;BME280;68062;48.726;9.370;2023-06-14T06:16:07;98344.19;;;15.73;58.77
78741;BME280;68062;48.726;9.370;2023-06-14T06:18:34;98346.94;;;15.68;59.66
78741;BME280;68062;48.726;9.370;2023-06-14T06:21:03;98339.47;;;15.89;60.79
78741;BME280;68062;48.726;9.370;2023-06-14T06:23:30;98338.81;;;16.09;57.60
78741;BME280;68062;48.726;9.370;2023-06-14T06:25:57;98342.50;;;16.02;58.14
78741;BME280;68062;48.726;9.370;2023-06-14T06:28:23;98346.13;;;16.25;58.36
78741;BME280;68062;48.726;9.370;2023-06-14T06:30:50;98333.84;;;16.57;56.40
78741;BME280;68062;48.726;9.370;2023-06-14T06:33:19;98340.94;;;16.79;56.40
78741;BME280;68062;48.726;9.370;2023-06-14T06:35:45;98343.22;;;16.88;57.04
78741;BME280;68062;48.726;9.370;2023-06-14T06:38:12;98343.53;;;17.04;56.56
78741;BME280;68062;48.726;9.370;2023-06-14T06:40:39;98336.72;;;17.25;56.03
78741;BME280;68062;48.726;9.370;2023-06-14T06:43:06;98343.41;;;17.09;55.31
78741;BME280;68062;48.726;9.370;2023-06-14T06:45:40;98345.06;;;17.35;54.94
78741;BME280;68062;48.726;9.370;2023-06-14T06:48:07;98339.53;;;17.44;53.52
78741;BME280;68062;48.726;9.370;2023-06-14T06:50:36;98336.13;;;17.42;54.18
78741;BME280;68062;48.726;9.370;2023-06-14T06:53:04;98345.31;;;17.75;53.40
78741;BME280;68062;48.726;9.370;2023-06-14T06:55:32;98355.25;;;17.87;53.57
78741;BME280;68062;48.726;9.370;2023-06-14T06:57:59;98354.28;;;18.14;53.36
78741;BME280;68062;48.726;9.370;2023-06-14T07:00:26;98356.13;;;17.88;53.16
78741;BME280;68062;48.726;9.370;2023-06-14T07:02:53;98356.41;;;18.26;51.53
78741;BME280;68062;48.726;9.370;2023-06-14T07:05:20;98362.44;;;18.70;51.04
78741;BME280;68062;48.726;9.370;2023-06-14T07:07:48;98358.94;;;18.91;49.86
78741;BME280;68062;48.726;9.370;2023-06-14T07:10:14;98358.00;;;19.15;49.56
78741;BME280;68062;48.726;9.370;2023-06-14T07:12:42;98360.19;;;19.24;49.25
78741;BME280;68062;48.726;9.370;2023-06-14T07:15:09;98362.63;;;19.48;48.65
78741;BME280;68062;48.726;9.370;2023-06-14T07:17:36;98361.50;;;19.53;48.86
78741;BME280;68062;48.726;9.370;2023-06-14T07:20:04;98356.38;;;19.90;46.80
78741;BME280;68062;48.726;9.370;2023-06-14T07:22:37;98365.13;;;20.63;45.71
78741;BME280;68062;48.726;9.370;2023-06-14T07:25:06;98363.09;;;21.54;43.73
78741;BME280;68062;48.726;9.370;2023-06-14T07:27:33;98363.94;;;22.04;42.96
78741;BME280;68062;48.726;9.370;2023-06-14T07:30:00;98363.78;;;22.08;42.64
78741;BME280;68062;48.726;9.370;2023-06-14T07:32:27;98368.41;;;23.10;40.72
78741;BME280;68062;48.726;9.370;2023-06-14T07:34:54;98370.28;;;23.53;39.47
78741;BME280;68062;48.726;9.370;2023-06-14T07:37:20;98369.97;;;23.29;40.48
78741;BME280;68062;48.726;9.370;2023-06-14T07:39:47;98370.91;;;23.71;39.18
78741;BME280;68062;48.726;9.370;2023-06-14T07:42:15;98366.91;;;24.62;38.32
78741;BME280;68062;48.726;9.370;2023-06-14T07:44:42;98371.50;;;24.86;38.17
78741;BME280;68062;48.726;9.370;2023-06-14T07:47:09;98367.84;;;23.05;38.63
78741;BME280;68062;48.726;9.370;2023-06-14T07:49:35;98371.69;;;24.43;37.30
78741;BME280;68062;48.726;9.370;2023-06-14T07:52:02;98368.03;;;25.11;36.69
78741;BME280;68062;48.726;9.370;2023-06-14T07:54:29;98374.50;;;26.21;34.47
78741;BME280;68062;48.726;9.370;2023-06-14T07:56:57;98376.81;;;25.88;33.93
78741;BME280;68062;48.726;9.370;2023-06-14T07:59:27;98296.56;;;25.81;33.52
78741;BME280;68062;48.726;9.370;2023-06-14T08:01:54;98374.31;;;25.61;34.09
78741;BME280;68062;48.726;9.370;2023-06-14T08:04:20;98368.75;;;26.40;33.51
78741;BME280;68062;48.726;9.370;2023-06-14T08:06:47;98361.81;;;25.38;34.53
78741;BME280;68062;48.726;9.370;2023-06-14T08:09:14;98368.03;;;26.38;33.34
78741;BME280;68062;48.726;9.370;2023-06-14T08:11:41;98368.94;;;26.97;33.05
78741;BME280;68062;48.726;9.370;2023-06-14T08:14:08;98371.78;;;25.72;33.85
78741;BME280;68062;48.726;9.370;2023-06-14T08:16:36;98367.84;;;26.28;33.82
78741;BME280;68062;48.726;9.370;2023-06-14T08:19:03;98366.72;;;27.26;32.52
78741;BME280;68062;48.726;9.370;2023-06-14T08:21:30;98375.31;;;26.70;32.20
78741;BME280;68062;48.726;9.370;2023-06-14T08:23:59;98366.66;;;26.68;32.37
78741;BME280;68062;48.726;9.370;2023-06-14T08:26:25;98367.78;;;26.77;33.16
78741;BME280;68062;48.726;9.370;2023-06-14T08:28:54;98369.94;;;27.30;32.15
78741;BME280;68062;48.726;9.370;2023-06-14T08:31:20;98367.09;;;27.67;31.58
78741;BME280;68062;48.726;9.370;2023-06-14T08:33:49;98366.09;;;27.23;32.30
78741;BME280;68062;48.726;9.370;2023-06-14T08:36:15;98369.56;;;28.68;30.56
78741;BME280;68062;48.726;9.370;2023-06-14T08:38:42;98365.00;;;28.70;30.36
78741;BME280;68062;48.726;9.370;2023-06-14T08:41:12;98366.63;;;27.51;31.29
78741;BME280;68062;48.726;9.370;2023-06-14T08:43:39;98366.69;;;26.79;32.35
78741;BME280;68062;48.726;9.370;2023-06-14T08:46:06;98366.97;;;26.03;33.15
78741;BME280;68062;48.726;9.370;2023-06-14T08:48:34;98367.31;;;25.85;34.13
78741;BME280;68062;48.726;9.370;2023-06-14T08:51:03;98362.25;;;27.38;32.42
78741;BME280;68062;48.726;9.370;2023-06-14T08:53:31;98376.00;;;26.61;32.65
78741;BME280;68062;48.726;9.370;2023-06-14T08:55:59;98369.88;;;26.96;32.70
78741;BME280;68062;48.726;9.370;2023-06-14T08:58:27;98375.09;;;27.88;31.27
78741;BME280;68062;48.726;9.370;2023-06-14T09:00:55;98370.22;;;28.28;29.80
78741;BME280;68062;48.726;9.370;2023-06-14T09:03:21;98374.66;;;27.49;30.94
78741;BME280;68062;48.726;9.370;2023-06-14T09:05:56;98370.91;;;27.29;31.52
78741;BME280;68062;48.726;9.370;2023-06-14T09:08:25;98355.28;;;27.03;32.22
78741;BME280;68062;48.726;9.370;2023-06-14T09:10:53;98356.16;;;26.79;31.12
78741;BME280;68062;48.726;9.370;2023-06-14T09:13:19;98353.13;;;27.31;31.17
78741;BME280;68062;48.726;9.370;2023-06-14T09:15:46;98358.94;;;28.58;30.29
78741;BME280;68062;48.726;9.370;2023-06-14T09:18:12;98358.47;;;28.09;30.27
78741;BME280;68062;48.726;9.370;2023-06-14T09:20:40;98369.38;;;28.60;29.65
78741;BME280;68062;48.726;9.370;2023-06-14T09:23:07;98362.03;;;28.63;30.07
78741;BME280;68062;48.726;9.370;2023-06-14T09:25:42;98333.00;;;28.52;28.50
78741;BME280;68062;48.726;9.370;2023-06-14T09:28:10;98361.09;;;29.07;28.72
78741;BME280;68062;48.726;9.370;2023-06-14T09:30:37;98362.72;;;29.29;29.31
78741;BME280;68062;48.726;9.370;2023-06-14T09:33:04;98359.16;;;28.88;29.47
78741;BME280;68062;48.726;9.370;2023-06-14T09:35:31;98358.66;;;27.16;30.46
78741;BME280;68062;48.726;9.370;2023-06-14T09:37:58;98366.44;;;25.61;33.19
78741;BME280;68062;48.726;9.370;2023-06-14T09:40:24;98360.72;;;25.80;32.92
78741;BME280;68062;48.726;9.370;2023-06-14T09:42:53;98366.25;;;26.85;32.00
78741;BME280;68062;48.726;9.370;2023-06-14T09:45:20;98367.09;;;26.26;33.16
78741;BME280;68062;48.726;9.370;2023-06-14T09:47:49;98368.91;;;26.12;32.30
78741;BME280;68062;48.726;9.370;2023-06-14T09:50:15;98362.88;;;26.48;32.01
78741;BME280;68062;48.726;9.370;2023-06-14T09:52:43;98368.13;;;27.08;29.88
78741;BME280;68062;48.726;9.370;2023-06-14T09:55:12;98363.69;;;27.42;28.80
78741;BME280;68062;48.726;9.370;2023-06-14T09:57:41;98365.06;;;26.90;29.01
78741;BME280;68062;48.726;9.370;2023-06-14T10:00:13;98356.16;;;27.72;28.98
78741;BME280;68062;48.726;9.370;2023-06-14T10:02:42;98360.00;;;27.45;29.14
78741;BME280;68062;48.726;9.370;2023-06-14T10:05:15;98357.41;;;28.44;27.84
78741;BME280;68062;48.726;9.370;2023-06-14T10:07:49;98369.28;;;28.17;29.21
78741;BME280;68062;48.726;9.370;2023-06-14T10:10:17;98367.44;;;28.95;28.79
78741;BME280;68062;48.726;9.370;2023-06-14T10:12:44;98362.53;;;28.25;29.46
78741;BME280;68062;48.726;9.370;2023-06-14T10:15:17;98358.00;;;30.05;27.12
78741;BME280;68062;48.726;9.370;2023-06-14T10:17:48;98367.53;;;28.93;28.52
78741;BME280;68062;48.726;9.370;2023-06-14T10:20:24;98344.91;;;30.33;27.07
78741;BME280;68062;48.726;9.370;2023-06-14T10:23:01;98353.00;;;30.61;26.25
78741;BME280;68062;48.726;9.370;2023-06-14T10:25:29;98353.41;;;29.66;26.79
78741;BME280;68062;48.726;9.370;2023-06-14T10:31:05;98340.97;;;29.57;26.97
78741;BME280;68062;48.726;9.370;2023-06-14T10:33:33;98352.59;;;28.05;29.40
78741;BME280;68062;48.726;9.370;2023-06-14T10:36:24;98338.50;;;29.03;27.81
78741;BME280;68062;48.726;9.370;2023-06-14T10:39:01;98349.28;;;29.42;27.30
78741;BME280;68062;48.726;9.370;2023-06-14T10:41:34;98338.06;;;31.55;24.85
78741;BME280;68062;48.726;9.370;2023-06-14T10:46:54;98349.19;;;31.40;25.03
78741;BME280;68062;48.726;9.370;2023-06-14T10:49:38;98341.97;;;29.03;27.46
78741;BME280;68062;48.726;9.370;2023-06-14T10:52:11;98343.94;;;29.63;27.05
78741;BME280;68062;48.726;9.370;2023-06-14T10:55:07;98346.25;;;29.26;27.86
78741;BME280;68062;48.726;9.370;2023-06-14T10:57:37;98352.88;;;28.68;28.07
78741;BME280;68062;48.726;9.370;2023-06-14T11:00:05;98353.09;;;26.97;30.06
78741;BME280;68062;48.726;9.370;2023-06-14T11:06:13;98344.66;;;27.73;29.38
78741;BME280;68062;48.726;9.370;2023-06-14T11:09:13;98346.50;;;28.91;28.26
78741;BME280;68062;48.726;9.370;2023-06-14T11:11:48;98343.56;;;28.73;27.24
78741;BME280;68062;48.726;9.370;2023-06-14T11:14:15;98336.69;;;29.03;27.29
78741;BME280;68062;48.726;9.370;2023-06-14T11:16:47;98329.56;;;29.35;27.38
78741;BME280;68062;48.726;9.370;2023-06-14T11:19:14;98333.41;;;30.91;25.96
78741;BME280;68062;48.726;9.370;2023-06-14T11:21:47;98338.06;;;30.20;27.06
78741;BME280;68062;48.726;9.370;2023-06-14T11:26:41;98344.88;;;30.43;26.36
78741;BME280;68062;48.726;9.370;2023-06-14T11:29:07;98342.28;;;31.10;25.84
78741;BME280;68062;48.726;9.370;2023-06-14T11:31:34;98353.41;;;29.35;27.61
78741;BME280;68062;48.726;9.370;2023-06-14T11:34:01;98303.06;;;29.25;27.15
78741;BME280;68062;48.726;9.370;2023-06-14T11:36:30;98344.22;;;28.66;27.62
78741;BME280;68062;48.726;9.370;2023-06-14T11:38:59;98346.66;;;29.21;27.31
78741;BME280;68062;48.726;9.370;2023-06-14T11:41:32;98337.28;;;29.38;26.93
78741;BME280;68062;48.726;9.370;2023-06-14T11:44:00;98346.91;;;29.18;27.74
78741;BME280;68062;48.726;9.370;2023-06-14T11:46:28;98335.91;;;29.94;26.54
78741;BME280;68062;48.726;9.370;2023-06-14T11:48:54;98343.63;;;30.47;26.05
78741;BME280;68062;48.726;9.370;2023-06-14T11:51:21;98341.97;;;29.03;26.66
78741;BME280;68062;48.726;9.370;2023-06-14T11:53:48;98330.59;;;28.05;28.37
78741;BME280;68062;48.726;9.370;2023-06-14T11:56:16;98331.44;;;27.27;29.25
78741;BME280;68062;48.726;9.370;2023-06-14T11:58:44;98334.22;;;26.32;30.85
78741;BME280;68062;48.726;9.370;2023-06-14T12:01:14;98331.28;;;26.59;30.28
78741;BME280;68062;48.726;9.370;2023-06-14T12:03:49;98330.50;;;26.34;31.33
78741;BME280;68062;48.726;9.370;2023-06-14T12:06:26;98336.44;;;26.85;30.33
78741;BME280;68062;48.726;9.370;2023-06-14T12:08:56;98334.66;;;27.31;29.29
78741;BME280;68062;48.726;9.370;2023-06-14T12:11:31;98330.50;;;28.72;28.17
78741;BME280;68062;48.726;9.370;2023-06-14T12:13:58;98330.22;;;28.54;27.86
78741;BME280;68062;48.726;9.370;2023-06-14T12:16:30;98334.03;;;29.03;27.93
78741;BME280;68062;48.726;9.370;2023-06-14T12:19:00;98328.16;;;29.62;26.59
78741;BME280;68062;48.726;9.370;2023-06-14T12:21:27;98326.03;;;30.56;26.55
78741;BME280;68062;48.726;9.370;2023-06-14T12:23:54;98325.50;;;30.22;24.95
78741;BME280;68062;48.726;9.370;2023-06-14T12:26:25;98318.47;;;31.28;25.10
78741;BME280;68062;48.726;9.370;2023-06-14T12:28:53;98322.13;;;31.83;24.25
78741;BME280;68062;48.726;9.370;2023-06-14T12:31:20;98312.75;;;32.87;23.08
78741;BME280;68062;48.726;9.370;2023-06-14T12:33:47;98318.16;;;33.82;22.05
78741;BME280;68062;48.726;9.370;2023-06-14T12:36:14;98300.09;;;34.35;21.09
78741;BME280;68062;48.726;9.370;2023-06-14T12:38:42;98316.28;;;32.70;23.20
78741;BME280;68062;48.726;9.370;2023-06-14T12:41:09;98314.72;;;33.46;23.15
78741;BME280;68062;48.726;9.370;2023-06-14T12:43:37;98316.47;;;32.14;24.41
78741;BME280;68062;48.726;9.370;2023-06-14T12:46:03;98313.66;;;31.69;24.31
78741;BME280;68062;48.726;9.370;2023-06-14T12:48:30;98323.41;;;31.13;25.45
78741;BME280;68062;48.726;9.370;2023-06-14T12:50:57;98315.13;;;31.26;25.54
78741;BME280;68062;48.726;9.370;2023-06-14T12:53:24;98316.00;;;30.59;25.29
78741;BME280;68062;48.726;9.370;2023-06-14T12:55:51;98316.75;;;30.99;25.66
78741;BME280;68062;48.726;9.370;2023-06-14T12:58:18;98324.22;;;30.76;25.18
78741;BME280;68062;48.726;9.370;2023-06-14T13:00:47;98323.06;;;29.08;27.32
78741;BME280;68062;48.726;9.370;2023-06-14T13:03:13;98325.28;;;29.03;27.03
78741;BME280;68062;48.726;9.370;2023-06-14T13:05:40;98323.19;;;27.99;27.98
78741;BME280;68062;48.726;9.370;2023-06-14T13:08:08;98283.72;;;26.72;29.03
78741;BME280;68062;48.726;9.370;2023-06-14T13:10:35;98322.88;;;27.01;29.38
78741;BME280;68062;48.726;9.370;2023-06-14T13:13:02;98291.88;;;27.94;28.02
78741;BME280;68062;48.726;9.370;2023-06-14T13:15:29;98319.88;;;29.45;26.26
78741;BME280;68062;48.726;9.370;2023-06-14T13:17:57;98256.88;;;28.56;26.25
78741;BME280;68062;48.726;9.370;2023-06-14T13:20:23;98317.97;;;30.08;25.40